Latest Weather Observations for Armidale Airport

IDN60801

Issued at 3:04 pm EDT Saturday 13 February 2016 (issued every 30 minutes, with the page automatically refreshed every 10 minutes)

About weather observations | Map of weather stations | Latest weather observations for NSW | Other Formats
Station Details ID: 056238 Name: ARMIDALE AIRPORT AWS Lat: -30.53 Lon: 151.62 Height: 1079.0 m
Data from the previous 72 hours. | See also: Recent months at Armidale Airport
Date/Time
EDT
Temp
°C
App
Temp
°C
Dew
Point
Rel
Hum
%
Delta-T
°C
Wind Press
QNH
hPa
Press
MSL
hPa
Rain
since 9 am
mm
Dir
 
Spd
km/h
Gust
km/h
Spd
kts
Gust
kts
13/03:00pm 24.1 20.8 9.7 40 8.3 ESE 17 26 9 14 1016.1 1010.4 0.2
13/02:30pm 23.9 20.0 9.5 40 8.2 SE 20 28 11 15 1016.5 1010.7 0.2
13/02:00pm 23.6 20.2 11.3 46 7.2 ESE 20 32 11 17 1016.8 1011.0 0.2
13/01:30pm 22.9 19.1 9.7 43 7.5 SE 20 28 11 15 1017.3 1011.5 0.2
13/01:00pm 22.4 18.4 8.1 40 7.9 ESE 19 28 10 15 1017.4 1011.6 0.2
13/12:30pm 22.2 18.9 11.0 49 6.5 E 19 28 10 15 1017.6 1011.8 0.2
13/12:00pm 21.3 17.8 10.8 51 6.1 ESE 20 28 11 15 1018.0 1012.3 0.2
13/11:30am 21.0 17.4 10.5 51 6.0 ESE 20 30 11 16 1018.3 1012.5 0.0
13/11:00am 19.8 16.7 12.1 61 4.5 E 20 26 11 14 1018.4 1012.6 0.0
13/10:30am 18.9 16.0 12.2 65 3.9 E 19 26 10 14 1018.5 1012.7 0.0
13/10:00am 17.6 14.6 12.5 72 3.0 E 20 28 11 15 1018.5 1012.7 0.0
13/09:30am 16.7 14.0 13.6 82 1.8 E 20 28 11 15 1018.5 1012.7 0.0
13/09:00am 14.4 11.5 14.1 98 0.2 E 22 28 12 15 1018.4 1012.6 -
13/08:55am 14.5 11.7 14.3 99 0.1 E 22 28 12 15 1018.3 1012.5 -
13/08:30am 13.5 10.8 13.5 100 0.0 E 20 26 11 14 1018.3 1012.5 -
13/08:19am 13.0 10.1 13.0 100 0.0 E 20 26 11 14 1018.3 1012.5 -
13/08:00am 12.6 9.6 12.6 100 0.0 E 20 28 11 15 1018.0 1012.3 -
13/07:30am 12.3 9.2 12.3 100 0.0 E 20 26 11 14 1017.8 1012.1 -
13/07:00am 12.1 9.1 12.1 100 0.0 E 19 22 10 12 1017.6 1011.8 -
13/06:30am 12.2 9.7 12.2 100 0.0 E 17 20 9 11 1017.6 1011.8 -
13/06:00am 12.2 9.7 12.2 100 0.0 E 17 20 9 11 1017.3 1011.5 -
13/05:30am 12.3 9.8 12.3 100 0.0 E 17 22 9 12 1017.3 1011.5 -
13/05:00am 12.5 10.1 12.5 100 0.0 E 17 20 9 11 1017.3 1011.5 -
13/04:30am 12.7 11.1 12.7 100 0.0 ESE 13 17 7 9 1017.1 1011.4 -
13/04:26am 12.7 10.7 12.7 100 0.0 E 15 17 8 9 1017.3 1011.5 -
13/04:00am 12.8 10.4 12.8 100 0.0 ESE 17 20 9 11 1017.1 1011.4 -
13/03:44am 12.7 10.7 12.7 100 0.0 ESE 15 20 8 11 1017.3 1011.5 -
13/03:30am 12.9 11.0 12.9 100 0.0 E 15 19 8 10 1017.3 1011.5 -
13/03:00am 12.8 10.8 12.6 99 0.1 E 15 17 8 9 1017.5 1011.7 0.0
13/02:30am 13.2 11.3 13.0 99 0.1 ESE 15 19 8 10 1017.7 1011.9 -
13/02:00am 13.6 11.4 13.4 99 0.1 E 17 22 9 12 1017.8 1012.1 -
13/01:30am 13.9 11.3 13.7 99 0.1 E 20 26 11 14 1018.1 1012.4 -
13/01:00am 14.0 11.6 13.8 99 0.1 E 19 22 10 12 1018.6 1012.8 -
13/12:30am 14.3 12.3 14.0 98 0.2 E 17 22 9 12 1018.8 1013.1 -
13/12:00am 14.5 12.6 14.2 98 0.2 E 17 20 9 11 1018.8 1013.1 -
 
Date/Time
EDT
Temp
°C
App
Temp
°C
Dew
Point
Rel
Hum
%
Delta-T
°C
Wind Press
QNH
hPa
Press
MSL
hPa
Rain
since 9 am
mm
Dir
 
Spd
km/h
Gust
km/h
Spd
kts
Gust
kts
12/11:30pm 14.8 13.0 14.5 98 0.2 E 17 20 9 11 1019.0 1013.3 -
12/11:00pm 15.1 13.2 14.1 94 0.6 E 17 22 9 12 1019.1 1013.4 -
12/10:30pm 15.6 13.3 14.1 91 0.9 E 19 26 10 14 1019.1 1013.4 -
12/10:00pm 15.8 13.8 14.0 89 1.1 E 17 20 9 11 1019.4 1013.6 -
12/09:30pm 16.5 14.1 13.8 84 1.6 E 19 24 10 13 1019.3 1013.5 -
12/09:00pm 17.0 14.4 13.3 79 2.2 E 19 24 10 13 1018.9 1013.2 0.0
12/08:30pm 17.6 15.6 12.7 73 2.9 E 15 20 8 11 1018.9 1013.2 -
12/08:00pm 18.4 16.2 12.2 67 3.6 E 15 20 8 11 1018.6 1012.8 -
12/07:30pm 19.6 16.3 10.9 57 5.0 E 19 24 10 13 1018.5 1012.7 -
12/07:00pm 20.9 17.6 11.0 53 5.7 E 19 24 10 13 1018.3 1012.5 -
12/06:30pm 21.5 17.8 10.0 48 6.6 ENE 20 28 11 15 1018.0 1012.3 -
12/06:00pm 22.1 17.9 9.6 45 7.1 ESE 22 30 12 16 1017.9 1012.2 -
12/05:30pm 22.5 19.1 9.3 43 7.5 E 17 28 9 15 1017.8 1012.1 -
12/05:00pm 22.6 19.9 10.4 46 7.0 ESE 15 26 8 14 1017.8 1012.1 -
12/04:30pm 22.6 19.0 10.4 46 7.0 ESE 20 32 11 17 1017.8 1012.1 -
12/04:00pm 22.5 19.6 10.9 48 6.7 ESE 17 28 9 15 1017.9 1012.2 -
12/03:30pm 22.6 19.2 10.7 47 6.9 SE 19 26 10 14 1018.1 1012.4 -
12/03:00pm 22.1 18.7 11.2 50 6.4 E 20 32 11 17 1018.5 1012.7 0.4
12/02:30pm 22.2 19.2 11.9 52 6.1 E 19 30 10 16 1018.6 1012.8 -
12/02:00pm 21.9 18.8 11.6 52 6.0 SE 19 28 10 15 1018.8 1013.1 -
12/01:30pm 22.1 19.5 13.2 57 5.4 E 19 30 10 16 1019.0 1013.3 -
12/01:00pm 21.5 18.6 12.4 56 5.4 ESE 19 26 10 14 1019.0 1013.3 -
12/12:30pm 20.7 16.9 11.3 55 5.5 E 22 33 12 18 1019.3 1013.5 -
12/12:00pm 20.2 16.0 11.1 56 5.2 E 24 32 13 17 1019.5 1013.8 0.0
12/11:30am 19.6 15.5 11.4 59 4.7 ESE 24 32 13 17 1019.6 1013.9 0.0
12/11:00am 19.3 16.0 12.8 66 3.8 E 22 30 12 16 1019.8 1014.1 0.0
12/10:30am 18.8 15.2 13.2 70 3.3 E 24 32 13 17 1019.8 1014.1 0.0
12/10:00am 18.8 16.1 14.7 77 2.5 E 22 32 12 17 1019.9 1014.2 0.0
12/09:30am 17.6 13.6 13.1 75 2.7 E 26 33 14 18 1019.6 1013.9 0.0
12/09:00am 16.6 13.2 13.7 83 1.7 E 24 32 13 17 1019.5 1013.8 0.2
12/08:30am 15.3 11.9 12.6 84 1.6 E 22 28 12 15 1019.4 1013.6 0.2
12/08:00am 15.0 12.3 13.0 88 1.2 ENE 19 22 10 12 1018.9 1013.2 0.2
12/07:30am 13.6 11.4 13.3 98 0.2 E 17 20 9 11 1018.7 1013.0 0.2
12/07:00am 12.1 8.9 11.9 99 0.1 ENE 20 24 11 13 1018.1 1012.4 0.2
12/06:30am 11.9 8.8 11.7 99 0.1 ENE 19 22 10 12 1017.9 1012.2 0.2
12/06:00am 12.1 9.5 11.9 99 0.1 E 17 20 9 11 1018.0 1012.3 0.2
12/05:30am 12.5 10.0 12.3 99 0.1 E 17 20 9 11 1018.1 1012.4 0.2
12/05:00am 13.0 10.6 12.8 99 0.1 E 17 19 9 10 1017.9 1012.2 0.2
12/04:30am 13.2 11.0 13.2 100 0.0 E 17 22 9 12 1017.8 1012.1 0.2
12/04:00am 13.3 11.5 13.3 100 0.0 E 15 17 8 9 1018.1 1012.4 0.2
12/03:47am 13.5 11.8 13.5 100 0.0 E 15 19 8 10 1018.1 1012.4 0.2
12/03:30am 13.6 11.9 13.6 100 0.0 ENE 15 17 8 9 1018.3 1012.5 0.2
12/03:00am 14.0 12.4 14.0 100 0.0 ENE 15 17 8 9 1018.4 1012.6 0.2
12/02:49am 13.8 11.8 13.8 100 0.0 ENE 17 20 9 11 1018.5 1012.7 0.2
12/02:30am 14.2 13.1 14.2 100 0.0 E 13 19 7 10 1018.6 1012.8 0.2
12/02:04am 14.6 13.2 14.6 100 0.0 E 15 17 8 9 1018.7 1013.0 0.2
12/02:00am 14.5 13.0 14.3 99 0.1 E 15 19 8 10 1018.6 1012.8 0.2
12/01:30am 14.4 12.9 14.2 99 0.1 E 15 19 8 10 1019.0 1013.3 0.2
12/01:26am 14.5 13.0 14.3 99 0.1 E 15 19 8 10 1018.9 1013.2 0.2
12/01:00am 14.9 13.6 14.7 99 0.1 E 15 19 8 10 1019.4 1013.6 0.2
12/12:51am 14.8 13.8 14.6 99 0.1 E 13 15 7 8 1019.5 1013.8 0.2
12/12:37am 14.7 14.1 14.5 99 0.1 E 11 13 6 7 1019.6 1013.9 0.2
12/12:30am 14.7 14.0 14.4 98 0.2 E 11 13 6 7 1019.5 1013.8 0.2
12/12:00am 15.7 14.6 15.4 98 0.2 ESE 15 19 8 10 1019.6 1013.9 0.2
 
Date/Time
EDT
Temp
°C
App
Temp
°C
Dew
Point
Rel
Hum
%
Delta-T
°C
Wind Press
QNH
hPa
Press
MSL
hPa
Rain
since 9 am
mm
Dir
 
Spd
km/h
Gust
km/h
Spd
kts
Gust
kts
11/11:30pm 15.9 14.5 15.6 98 0.2 E 17 22 9 12 1019.4 1013.6 0.2
11/11:21pm 16.3 15.1 16.0 98 0.2 E 17 20 9 11 1019.4 1013.6 0.2
11/11:00pm 16.5 15.3 16.2 98 0.2 E 17 22 9 12 1019.4 1013.6 0.2
11/10:30pm 16.6 14.9 16.3 98 0.2 E 20 24 11 13 1019.4 1013.6 0.2
11/10:00pm 16.7 15.5 15.1 90 1.0 E 15 20 8 11 1019.1 1013.4 0.2
11/09:30pm 17.4 15.5 14.3 82 1.9 ESE 17 20 9 11 1018.8 1013.1 0.2
11/09:00pm 18.3 16.0 13.0 71 3.1 ESE 17 24 9 13 1018.4 1012.6 0.2
11/08:30pm 18.6 15.6 12.1 66 3.8 E 19 24 10 13 1017.7 1011.9 0.2
11/08:00pm 19.6 16.3 11.6 60 4.6 E 20 26 11 14 1017.3 1011.5 0.2
11/07:30pm 20.7 17.8 11.1 54 5.6 E 17 24 9 13 1017.1 1011.4 0.2
11/07:00pm 22.2 18.4 11.0 49 6.5 E 22 28 12 15 1016.8 1011.0 0.2
11/06:30pm 23.2 19.8 9.2 41 7.9 E 17 24 9 13 1016.7 1010.9 0.2
11/06:00pm 23.8 20.4 9.0 39 8.4 ESE 17 22 9 12 1016.6 1010.8 0.2
11/05:30pm 24.3 20.5 9.1 38 8.6 E 19 26 10 14 1016.4 1010.6 0.2
11/05:00pm 24.5 20.8 9.3 38 8.7 E 19 28 10 15 1016.5 1010.7 0.2
11/04:30pm 25.1 21.8 9.4 37 9.0 ESE 17 22 9 12 1016.5 1010.7 0.2
11/04:00pm 24.7 21.4 10.9 42 8.1 ESE 19 26 10 14 1016.8 1011.0 0.2
11/03:30pm 24.4 21.8 10.7 42 8.0 E 15 24 8 13 1017.0 1011.3 0.2
11/03:00pm 24.1 21.2 8.1 36 8.9 SE 13 24 7 13 1017.3 1011.5 0.2
11/02:30pm 24.1 20.2 7.3 34 9.3 SE 17 24 9 13 1017.5 1011.7 0.2
11/02:00pm 24.2 22.0 9.4 39 8.5 E 11 33 6 18 1017.7 1011.9 0.2
11/01:30pm 23.0 20.4 10.8 46 7.1 SE 15 24 8 13 1017.9 1012.2 0.2
11/01:00pm 23.1 20.8 11.8 49 6.7 ESE 15 24 8 13 1018.1 1012.4 0.2
11/12:30pm 22.0 19.8 12.0 53 5.9 ESE 15 20 8 11 1018.3 1012.5 0.2
11/12:00pm 21.2 18.4 11.2 53 5.8 E 17 24 9 13 1018.6 1012.8 0.2
11/11:30am 20.5 19.2 13.7 65 4.1 SE 13 19 7 10 1018.7 1013.0 0.0
11/11:00am 19.4 18.3 13.1 67 3.7 SE 11 20 6 11 1018.8 1013.1 0.0
11/10:30am 18.9 18.0 14.8 77 2.5 E 13 20 7 11 1018.9 1013.2 0.0
11/10:00am 18.2 16.7 14.3 78 2.4 ENE 15 22 8 12 1018.9 1013.2 0.0
11/09:30am 17.0 16.2 15.2 89 1.1 E 13 17 7 9 1019.0 1013.3 0.0
11/09:10am 15.8 15.4 15.3 97 0.3 E 11 15 6 8 1019.0 1013.3 0.0
11/09:00am 14.7 13.7 14.5 99 0.1 E 13 15 7 8 1018.9 1013.2 0.0
11/08:30am 13.6 11.9 13.6 100 0.0 ENE 15 20 8 11 1018.7 1013.0 0.0
11/08:09am 13.7 12.0 13.7 100 0.0 E 15 19 8 10 1018.5 1012.7 0.0
11/08:00am 13.4 11.6 13.4 100 0.0 E 15 19 8 10 1018.4 1012.6 0.0
11/07:30am 13.0 11.5 13.0 100 0.0 ESE 13 20 7 11 1018.1 1012.4 0.0
11/07:00am 13.3 11.5 13.3 100 0.0 ESE 15 17 8 9 1017.8 1012.1 0.0
11/06:30am 12.8 11.6 12.8 100 0.0 ESE 11 13 6 7 1017.4 1011.6 0.0
11/06:00am 12.5 11.2 12.5 100 0.0 SE 11 13 6 7 1016.9 1011.1 0.0
11/05:30am 12.7 11.1 12.7 100 0.0 SE 13 13 7 7 1016.8 1011.0 0.0
11/05:00am 12.2 11.1 12.0 99 0.1 SE 9 13 5 7 1016.7 1010.9 0.0
11/04:46am 11.1 10.1 10.9 99 0.1 SE 7 7 4 4 1016.6 1010.8 0.0
11/04:40am 10.9 10.0 10.7 99 0.1 SE 6 7 3 4 1016.6 1010.8 0.0
11/04:30am 11.4 10.5 11.2 99 0.1 SE 7 9 4 5 1016.5 1010.7 0.0
11/04:00am 11.9 11.1 11.7 99 0.1 SE 7 9 4 5 1016.5 1010.7 0.0
11/03:30am 12.3 11.2 12.1 99 0.1 ESE 9 11 5 6 1016.5 1010.7 0.0
11/03:00am 13.2 11.7 13.0 99 0.1 E 13 17 7 9 1016.6 1010.8 0.0
11/02:30am 13.4 11.2 13.2 99 0.1 E 17 19 9 10 1016.7 1010.9 0.0
11/02:00am 13.3 11.8 13.1 99 0.1 E 13 15 7 8 1017.1 1011.4 0.0
11/01:30am 13.3 11.4 13.1 99 0.1 ENE 15 17 8 9 1017.6 1011.8 0.0
11/01:00am 13.8 12.1 13.6 99 0.1 ENE 15 17 8 9 1017.9 1012.2 0.0
11/12:30am 14.7 13.6 14.4 98 0.2 E 13 15 7 8 1018.1 1012.4 0.0
11/12:00am 15.0 13.9 14.4 96 0.4 ESE 13 17 7 9 1018.5 1012.7 0.0
 
Date/Time
EDT
Temp
°C
App
Temp
°C
Dew
Point
Rel
Hum
%
Delta-T
°C
Wind Press
QNH
hPa
Press
MSL
hPa
Rain
since 9 am
mm
Dir
 
Spd
km/h
Gust
km/h
Spd
kts
Gust
kts
10/11:30pm 15.3 14.1 14.0 92 0.8 ESE 13 17 7 9 1018.6 1012.8 0.0
10/11:00pm 15.5 15.0 13.7 89 1.1 ESE 9 13 5 7 1018.8 1013.1 0.0
10/10:30pm 15.3 13.9 13.3 88 1.2 ENE 13 17 7 9 1018.6 1012.8 0.0
10/10:00pm 16.0 13.9 13.7 86 1.4 ENE 17 19 9 10 1018.6 1012.8 0.0
10/09:30pm 16.6 14.5 13.7 83 1.7 ENE 17 20 9 11 1018.4 1012.6 0.0
10/09:00pm 17.3 14.6 13.4 78 2.3 ENE 20 26 11 14 1018.3 1012.5 0.0
10/08:30pm 18.1 15.4 13.4 74 2.8 E 20 26 11 14 1018.1 1012.4 0.0
10/08:00pm 18.7 16.4 13.1 70 3.3 E 17 20 9 11 1018.0 1012.3 0.0
10/07:30pm 20.6 18.0 12.1 58 5.0 E 17 24 9 13 1017.7 1011.9 0.0
10/07:00pm 21.8 19.1 11.8 53 5.9 ESE 17 20 9 11 1017.4 1011.6 0.0
10/06:30pm 22.7 20.0 10.5 46 7.1 ESE 15 22 8 12 1017.0 1011.3 0.0
10/06:00pm 23.1 19.8 9.5 42 7.7 ESE 17 24 9 13 1016.9 1011.1 0.0
10/05:30pm 23.4 20.6 10.1 43 7.7 ESE 15 24 8 13 1016.9 1011.1 0.0
10/05:00pm 23.6 20.6 9.2 40 8.2 ESE 15 20 8 11 1016.8 1011.0 0.0
10/04:30pm 23.5 21.1 9.9 42 7.8 SE 13 20 7 11 1016.8 1011.0 0.0
10/04:00pm 23.7 21.1 7.8 36 8.8 SSE 11 20 6 11 1016.9 1011.1 0.0
10/03:30pm 23.2 20.6 9.2 41 7.9 SE 13 20 7 11 1017.1 1011.4 0.0

Other Formats:

Comma delimited format used in spreadsheet applications
http://www.bom.gov.au/fwo/IDN60801/IDN60801.95773.axf

JavaScript Object Notation format (JSON) in row-major order
http://www.bom.gov.au/fwo/IDN60801/IDN60801.95773.json